Orbital elements of COSMOS 2251 DEB
| Launched | 15 June 1993 |
| Flight ended | – |
| Launch site | Plesetsk Missile and Space Complex, Russia |
| Owner | Commonwealth of Independent States (former USSR) |
| NORAD ID | 39591 |
| Date fetched |
Epoch osculation |
Inc. [°] |
Ecc. | RA asc node [hr] |
Arg Peri. [°] |
Mean anom [°] |
Mean motion [rev/day] |
Abs. mag |
| Date fetched |
Epoch osculation |
Inc. [°] |
Ecc. | RA asc node [hr] |
Arg Peri. [°] |
Mean anom [°] |
Mean motion [rev/day] |
Abs. mag |
| 2026 May 03 17:57 | 2026 Apr 30 09:50:52 | 74.0216 | 0.00287 | 23.2968 | 72.2179 | 104.5821 | 14.42201 | – |
| 2026 May 02 17:57 | 2026 Apr 30 09:50:52 | 74.0216 | 0.00287 | 23.2968 | 72.2179 | 104.5821 | 14.42201 | – |
| 2026 May 01 17:56 | 2026 Apr 30 09:50:52 | 74.0216 | 0.00287 | 23.2968 | 72.2179 | 104.5821 | 14.42201 | – |
| 2026 Apr 30 17:56 | 2026 Apr 30 09:50:52 | 74.0216 | 0.00287 | 23.2968 | 72.2179 | 104.5821 | 14.42201 | – |
| 2026 Apr 29 17:57 | 2026 Apr 22 22:58:06 | 74.0222 | 0.00287 | 0.2190 | 88.5308 | 104.5821 | 14.42201 | – |
| 2026 Apr 28 17:56 | 2026 Apr 22 22:58:06 | 74.0222 | 0.00287 | 0.2190 | 88.5308 | 104.5821 | 14.42201 | – |
| 2026 Apr 27 17:58 | 2026 Apr 22 22:58:06 | 74.0222 | 0.00287 | 0.2190 | 88.5308 | 104.5821 | 14.42201 | – |
| 2026 Apr 26 17:58 | 2026 Apr 22 22:58:06 | 74.0222 | 0.00287 | 0.2190 | 88.5308 | 104.5821 | 14.42201 | – |
| 2026 Apr 25 17:58 | 2026 Apr 22 22:58:06 | 74.0222 | 0.00287 | 0.2190 | 88.5308 | 104.5821 | 14.42201 | – |
| 2026 Apr 24 17:59 | 2026 Apr 22 22:58:06 | 74.0222 | 0.00287 | 0.2190 | 88.5308 | 104.5821 | 14.42201 | – |
| 2026 Apr 23 17:57 | 2026 Apr 19 00:04:59 | 74.0226 | 0.00286 | 0.7082 | 97.1250 | 104.5821 | 14.42201 | – |
| 2026 Apr 22 17:57 | 2026 Apr 19 00:04:59 | 74.0226 | 0.00286 | 0.7082 | 97.1250 | 104.5821 | 14.42201 | – |
| 2026 Apr 21 17:57 | 2026 Apr 19 00:04:59 | 74.0226 | 0.00286 | 0.7082 | 97.1250 | 104.5821 | 14.42201 | – |
| 2026 Apr 20 17:57 | 2026 Apr 19 00:04:59 | 74.0226 | 0.00286 | 0.7082 | 97.1250 | 104.5821 | 14.42201 | – |
| 2026 Apr 19 17:58 | 2026 Apr 19 00:04:59 | 74.0226 | 0.00286 | 0.7082 | 97.1250 | 104.5821 | 14.42201 | – |
| 2026 Apr 18 17:56 | 2026 Apr 13 00:54:16 | 74.0221 | 0.00286 | 1.4463 | 110.1049 | 104.5821 | 14.42201 | – |
| 2026 Apr 16 17:57 | 2026 Apr 13 00:54:16 | 74.0221 | 0.00286 | 1.4463 | 110.1049 | 104.5821 | 14.42201 | – |
| 2026 Apr 14 17:57 | 2026 Apr 13 00:54:16 | 74.0221 | 0.00286 | 1.4463 | 110.1049 | 104.5821 | 14.42201 | – |
| 2026 Apr 13 17:57 | 2026 Apr 13 00:54:16 | 74.0221 | 0.00286 | 1.4463 | 110.1049 | 104.5821 | 14.42201 | – |
| 2026 Apr 12 17:57 | 2026 Apr 08 13:26:04 | 74.0219 | 0.00286 | 2.0003 | 119.9805 | 104.5821 | 14.42201 | – |
| 2026 Apr 11 17:57 | 2026 Apr 08 13:26:04 | 74.0219 | 0.00286 | 2.0003 | 119.9805 | 104.5821 | 14.42201 | – |
| 2026 Apr 10 17:58 | 2026 Apr 08 13:26:04 | 74.0219 | 0.00286 | 2.0003 | 119.9805 | 104.5821 | 14.42201 | – |
| 2026 Apr 09 18:01 | 2026 Apr 08 13:26:04 | 74.0219 | 0.00286 | 2.0003 | 119.9805 | 104.5821 | 14.42201 | – |
| 2026 Apr 08 17:57 | 2026 Apr 08 13:26:04 | 74.0219 | 0.00286 | 2.0003 | 119.9805 | 104.5821 | 14.42201 | – |
| 2026 Apr 07 17:57 | 2026 Mar 31 13:42:34 | 74.0209 | 0.00287 | 2.9887 | 137.3664 | 104.5821 | 14.42201 | – |
| 2026 Apr 06 17:57 | 2026 Mar 31 13:42:34 | 74.0209 | 0.00287 | 2.9887 | 137.3664 | 104.5821 | 14.42201 | – |